sensor_id;sensor_type;location;lat;lon;timestamp;P1;durP1;ratioP1;P2;durP2;ratioP2
49548;SDS011;35450;44.518;7.466;2023-09-30T00:01:25;18.20;;;12.82;;
49548;SDS011;35450;44.518;7.466;2023-09-30T00:04:30;19.45;;;11.75;;
49548;SDS011;35450;44.518;7.466;2023-09-30T00:07:34;20.85;;;12.95;;
49548;SDS011;35450;44.518;7.466;2023-09-30T00:10:38;23.65;;;11.98;;
49548;SDS011;35450;44.518;7.466;2023-09-30T00:13:42;18.23;;;11.30;;
49548;SDS011;35450;44.518;7.466;2023-09-30T00:16:46;21.58;;;11.15;;
49548;SDS011;35450;44.518;7.466;2023-09-30T00:19:50;25.33;;;11.85;;
49548;SDS011;35450;44.518;7.466;2023-09-30T00:22:54;23.75;;;11.85;;
49548;SDS011;35450;44.518;7.466;2023-09-30T00:25:58;22.75;;;12.23;;
49548;SDS011;35450;44.518;7.466;2023-09-30T00:29:03;19.52;;;11.15;;
49548;SDS011;35450;44.518;7.466;2023-09-30T00:32:08;29.02;;;11.68;;
49548;SDS011;35450;44.518;7.466;2023-09-30T00:35:14;23.27;;;12.38;;
49548;SDS011;35450;44.518;7.466;2023-09-30T00:38:19;24.38;;;12.13;;
49548;SDS011;35450;44.518;7.466;2023-09-30T00:41:23;19.60;;;11.88;;
49548;SDS011;35450;44.518;7.466;2023-09-30T00:44:27;22.27;;;11.90;;
49548;SDS011;35450;44.518;7.466;2023-09-30T00:47:32;18.25;;;11.05;;
49548;SDS011;35450;44.518;7.466;2023-09-30T00:50:37;27.90;;;11.07;;
49548;SDS011;35450;44.518;7.466;2023-09-30T00:53:41;17.13;;;11.70;;
49548;SDS011;35450;44.518;7.466;2023-09-30T00:56:45;17.73;;;9.77;;
49548;SDS011;35450;44.518;7.466;2023-09-30T00:59:51;20.20;;;11.35;;
49548;SDS011;35450;44.518;7.466;2023-09-30T01:02:55;20.77;;;11.45;;
49548;SDS011;35450;44.518;7.466;2023-09-30T01:06:02;20.58;;;11.95;;
49548;SDS011;35450;44.518;7.466;2023-09-30T01:09:09;16.00;;;11.25;;
49548;SDS011;35450;44.518;7.466;2023-09-30T01:12:13;18.15;;;11.60;;
49548;SDS011;35450;44.518;7.466;2023-09-30T01:15:17;26.48;;;12.98;;
49548;SDS011;35450;44.518;7.466;2023-09-30T01:18:21;26.00;;;13.40;;
49548;SDS011;35450;44.518;7.466;2023-09-30T01:21:25;26.98;;;13.93;;
49548;SDS011;35450;44.518;7.466;2023-09-30T01:24:31;19.92;;;14.75;;
49548;SDS011;35450;44.518;7.466;2023-09-30T01:27:44;28.60;;;13.48;;
49548;SDS011;35450;44.518;7.466;2023-09-30T01:30:48;22.20;;;12.98;;
49548;SDS011;35450;44.518;7.466;2023-09-30T01:33:52;23.33;;;13.13;;
49548;SDS011;35450;44.518;7.466;2023-09-30T01:36:58;18.77;;;11.60;;
49548;SDS011;35450;44.518;7.466;2023-09-30T01:40:02;16.10;;;11.65;;
49548;SDS011;35450;44.518;7.466;2023-09-30T01:43:11;22.75;;;12.60;;
49548;SDS011;35450;44.518;7.466;2023-09-30T01:46:17;24.05;;;12.75;;
49548;SDS011;35450;44.518;7.466;2023-09-30T01:49:21;18.45;;;12.25;;
49548;SDS011;35450;44.518;7.466;2023-09-30T01:52:27;17.85;;;11.77;;
49548;SDS011;35450;44.518;7.466;2023-09-30T01:55:32;17.30;;;11.55;;
49548;SDS011;35450;44.518;7.466;2023-09-30T01:58:37;18.92;;;12.32;;
49548;SDS011;35450;44.518;7.466;2023-09-30T02:01:41;18.70;;;12.95;;
49548;SDS011;35450;44.518;7.466;2023-09-30T02:04:45;23.55;;;13.88;;
49548;SDS011;35450;44.518;7.466;2023-09-30T02:07:50;26.27;;;12.70;;
49548;SDS011;35450;44.518;7.466;2023-09-30T02:10:53;21.85;;;13.63;;
49548;SDS011;35450;44.518;7.466;2023-09-30T02:13:58;20.40;;;13.05;;
49548;SDS011;35450;44.518;7.466;2023-09-30T02:17:02;20.40;;;12.02;;
49548;SDS011;35450;44.518;7.466;2023-09-30T02:20:06;16.40;;;11.40;;
49548;SDS011;35450;44.518;7.466;2023-09-30T02:23:18;19.25;;;12.55;;
49548;SDS011;35450;44.518;7.466;2023-09-30T02:26:24;23.48;;;12.95;;
49548;SDS011;35450;44.518;7.466;2023-09-30T02:29:28;18.17;;;12.43;;
49548;SDS011;35450;44.518;7.466;2023-09-30T02:32:34;17.33;;;12.00;;
49548;SDS011;35450;44.518;7.466;2023-09-30T02:35:43;22.45;;;11.00;;
49548;SDS011;35450;44.518;7.466;2023-09-30T02:38:49;17.88;;;11.05;;
49548;SDS011;35450;44.518;7.466;2023-09-30T02:41:53;17.23;;;10.98;;
49548;SDS011;35450;44.518;7.466;2023-09-30T02:44:59;15.93;;;11.10;;
49548;SDS011;35450;44.518;7.466;2023-09-30T02:48:04;17.63;;;10.70;;
49548;SDS011;35450;44.518;7.466;2023-09-30T02:51:10;26.58;;;11.45;;
49548;SDS011;35450;44.518;7.466;2023-09-30T02:54:16;21.88;;;11.15;;
49548;SDS011;35450;44.518;7.466;2023-09-30T02:57:20;25.10;;;11.65;;
49548;SDS011;35450;44.518;7.466;2023-09-30T03:00:24;19.52;;;11.32;;
49548;SDS011;35450;44.518;7.466;2023-09-30T03:03:30;25.42;;;11.15;;
49548;SDS011;35450;44.518;7.466;2023-09-30T03:06:35;29.67;;;10.85;;
49548;SDS011;35450;44.518;7.466;2023-09-30T03:09:42;17.95;;;10.88;;
49548;SDS011;35450;44.518;7.466;2023-09-30T03:12:47;24.27;;;11.48;;
49548;SDS011;35450;44.518;7.466;2023-09-30T03:15:51;23.42;;;10.75;;
49548;SDS011;35450;44.518;7.466;2023-09-30T03:18:55;21.52;;;12.85;;
49548;SDS011;35450;44.518;7.466;2023-09-30T03:22:00;15.90;;;11.05;;
49548;SDS011;35450;44.518;7.466;2023-09-30T03:25:09;16.20;;;11.00;;
49548;SDS011;35450;44.518;7.466;2023-09-30T03:28:15;20.17;;;12.75;;
49548;SDS011;35450;44.518;7.466;2023-09-30T03:31:19;24.20;;;12.63;;
49548;SDS011;35450;44.518;7.466;2023-09-30T03:34:23;15.93;;;11.70;;
49548;SDS011;35450;44.518;7.466;2023-09-30T03:37:28;26.52;;;11.18;;
49548;SDS011;35450;44.518;7.466;2023-09-30T03:40:32;18.77;;;12.00;;
49548;SDS011;35450;44.518;7.466;2023-09-30T03:43:37;27.50;;;12.30;;
49548;SDS011;35450;44.518;7.466;2023-09-30T03:46:44;25.92;;;14.10;;
49548;SDS011;35450;44.518;7.466;2023-09-30T03:49:48;26.42;;;12.68;;
49548;SDS011;35450;44.518;7.466;2023-09-30T03:52:52;21.98;;;13.20;;
49548;SDS011;35450;44.518;7.466;2023-09-30T03:56:05;18.70;;;11.20;;
49548;SDS011;35450;44.518;7.466;2023-09-30T03:59:10;21.67;;;13.52;;
49548;SDS011;35450;44.518;7.466;2023-09-30T04:02:13;25.08;;;13.02;;
49548;SDS011;35450;44.518;7.466;2023-09-30T04:05:18;19.15;;;12.93;;
49548;SDS011;35450;44.518;7.466;2023-09-30T04:08:22;19.17;;;12.43;;
49548;SDS011;35450;44.518;7.466;2023-09-30T04:11:26;22.73;;;13.32;;
49548;SDS011;35450;44.518;7.466;2023-09-30T04:14:29;16.70;;;12.30;;
49548;SDS011;35450;44.518;7.466;2023-09-30T04:17:33;17.88;;;12.57;;
49548;SDS011;35450;44.518;7.466;2023-09-30T04:20:38;17.05;;;12.13;;
49548;SDS011;35450;44.518;7.466;2023-09-30T04:23:43;22.38;;;12.27;;
49548;SDS011;35450;44.518;7.466;2023-09-30T04:26:46;27.00;;;14.63;;
49548;SDS011;35450;44.518;7.466;2023-09-30T04:29:53;24.73;;;13.18;;
49548;SDS011;35450;44.518;7.466;2023-09-30T04:32:56;38.92;;;15.10;;
49548;SDS011;35450;44.518;7.466;2023-09-30T04:36:02;25.23;;;14.60;;
49548;SDS011;35450;44.518;7.466;2023-09-30T04:39:06;21.85;;;13.52;;
49548;SDS011;35450;44.518;7.466;2023-09-30T04:42:10;20.20;;;15.23;;
49548;SDS011;35450;44.518;7.466;2023-09-30T04:45:14;25.23;;;14.25;;
49548;SDS011;35450;44.518;7.466;2023-09-30T04:48:27;22.05;;;13.95;;
49548;SDS011;35450;44.518;7.466;2023-09-30T04:51:31;28.65;;;14.43;;
49548;SDS011;35450;44.518;7.466;2023-09-30T04:54:36;24.67;;;14.55;;
49548;SDS011;35450;44.518;7.466;2023-09-30T04:57:40;24.88;;;14.10;;
49548;SDS011;35450;44.518;7.466;2023-09-30T05:00:45;20.73;;;14.23;;
49548;SDS011;35450;44.518;7.466;2023-09-30T05:03:49;27.52;;;14.30;;
49548;SDS011;35450;44.518;7.466;2023-09-30T05:06:53;28.17;;;15.07;;
49548;SDS011;35450;44.518;7.466;2023-09-30T05:09:57;20.90;;;15.25;;
49548;SDS011;35450;44.518;7.466;2023-09-30T05:13:01;19.60;;;14.60;;
49548;SDS011;35450;44.518;7.466;2023-09-30T05:16:06;26.88;;;13.65;;
49548;SDS011;35450;44.518;7.466;2023-09-30T05:19:10;21.90;;;16.13;;
49548;SDS011;35450;44.518;7.466;2023-09-30T05:22:14;31.48;;;15.02;;
49548;SDS011;35450;44.518;7.466;2023-09-30T05:25:18;20.20;;;15.13;;
49548;SDS011;35450;44.518;7.466;2023-09-30T05:28:23;26.48;;;15.60;;
49548;SDS011;35450;44.518;7.466;2023-09-30T05:31:27;32.20;;;14.70;;
49548;SDS011;35450;44.518;7.466;2023-09-30T05:34:31;27.45;;;15.45;;
49548;SDS011;35450;44.518;7.466;2023-09-30T05:37:35;24.45;;;14.15;;
49548;SDS011;35450;44.518;7.466;2023-09-30T05:40:39;19.33;;;13.60;;
49548;SDS011;35450;44.518;7.466;2023-09-30T05:43:45;20.15;;;15.27;;
49548;SDS011;35450;44.518;7.466;2023-09-30T05:46:49;19.92;;;14.70;;
49548;SDS011;35450;44.518;7.466;2023-09-30T05:49:53;24.60;;;15.05;;
49548;SDS011;35450;44.518;7.466;2023-09-30T05:52:58;24.10;;;14.75;;
49548;SDS011;35450;44.518;7.466;2023-09-30T05:56:02;26.52;;;14.75;;
49548;SDS011;35450;44.518;7.466;2023-09-30T05:59:06;21.83;;;15.40;;
49548;SDS011;35450;44.518;7.466;2023-09-30T06:02:10;22.85;;;15.20;;
49548;SDS011;35450;44.518;7.466;2023-09-30T06:05:15;24.80;;;14.43;;
49548;SDS011;35450;44.518;7.466;2023-09-30T06:08:19;31.33;;;14.43;;
49548;SDS011;35450;44.518;7.466;2023-09-30T06:11:24;21.38;;;14.57;;
49548;SDS011;35450;44.518;7.466;2023-09-30T06:14:28;29.13;;;15.48;;
49548;SDS011;35450;44.518;7.466;2023-09-30T06:17:34;21.75;;;14.75;;
49548;SDS011;35450;44.518;7.466;2023-09-30T06:20:38;24.30;;;14.25;;
49548;SDS011;35450;44.518;7.466;2023-09-30T06:23:42;22.13;;;15.82;;
49548;SDS011;35450;44.518;7.466;2023-09-30T06:26:46;24.50;;;16.02;;
49548;SDS011;35450;44.518;7.466;2023-09-30T06:29:52;26.13;;;18.90;;
49548;SDS011;35450;44.518;7.466;2023-09-30T06:32:56;24.60;;;17.13;;
49548;SDS011;35450;44.518;7.466;2023-09-30T06:36:01;26.48;;;16.58;;
49548;SDS011;35450;44.518;7.466;2023-09-30T06:39:06;30.13;;;15.80;;
49548;SDS011;35450;44.518;7.466;2023-09-30T06:42:10;27.17;;;14.98;;
49548;SDS011;35450;44.518;7.466;2023-09-30T06:45:14;24.30;;;14.40;;
49548;SDS011;35450;44.518;7.466;2023-09-30T06:48:19;21.13;;;13.75;;
49548;SDS011;35450;44.518;7.466;2023-09-30T06:51:23;28.80;;;16.42;;
49548;SDS011;35450;44.518;7.466;2023-09-30T06:54:27;24.45;;;15.50;;
49548;SDS011;35450;44.518;7.466;2023-09-30T06:57:33;29.98;;;16.27;;
49548;SDS011;35450;44.518;7.466;2023-09-30T07:00:38;23.30;;;15.80;;
49548;SDS011;35450;44.518;7.466;2023-09-30T07:03:41;25.75;;;17.33;;
49548;SDS011;35450;44.518;7.466;2023-09-30T07:06:46;29.20;;;18.98;;
49548;SDS011;35450;44.518;7.466;2023-09-30T07:09:50;32.20;;;22.02;;
49548;SDS011;35450;44.518;7.466;2023-09-30T07:12:54;66.15;;;35.15;;
49548;SDS011;35450;44.518;7.466;2023-09-30T07:15:58;61.78;;;34.63;;
49548;SDS011;35450;44.518;7.466;2023-09-30T07:19:02;38.85;;;24.10;;
49548;SDS011;35450;44.518;7.466;2023-09-30T07:22:07;32.20;;;18.60;;
49548;SDS011;35450;44.518;7.466;2023-09-30T07:25:11;32.78;;;17.83;;
49548;SDS011;35450;44.518;7.466;2023-09-30T07:28:17;28.73;;;16.15;;
49548;SDS011;35450;44.518;7.466;2023-09-30T07:31:21;20.70;;;15.07;;
49548;SDS011;35450;44.518;7.466;2023-09-30T07:34:26;26.33;;;16.52;;
49548;SDS011;35450;44.518;7.466;2023-09-30T07:37:30;17.95;;;13.95;;
49548;SDS011;35450;44.518;7.466;2023-09-30T07:40:34;23.15;;;15.30;;
49548;SDS011;35450;44.518;7.466;2023-09-30T07:43:38;31.98;;;15.77;;
49548;SDS011;35450;44.518;7.466;2023-09-30T07:46:42;25.17;;;16.73;;
49548;SDS011;35450;44.518;7.466;2023-09-30T07:49:46;30.13;;;17.00;;
49548;SDS011;35450;44.518;7.466;2023-09-30T07:52:51;25.20;;;15.05;;
49548;SDS011;35450;44.518;7.466;2023-09-30T07:55:55;23.48;;;16.35;;
49548;SDS011;35450;44.518;7.466;2023-09-30T07:59:00;26.98;;;16.27;;
49548;SDS011;35450;44.518;7.466;2023-09-30T08:02:05;23.40;;;15.27;;
49548;SDS011;35450;44.518;7.466;2023-09-30T08:05:10;30.63;;;16.05;;
49548;SDS011;35450;44.518;7.466;2023-09-30T08:08:14;23.33;;;15.05;;
49548;SDS011;35450;44.518;7.466;2023-09-30T08:11:18;36.97;;;17.42;;
49548;SDS011;35450;44.518;7.466;2023-09-30T08:14:24;23.70;;;14.52;;
49548;SDS011;35450;44.518;7.466;2023-09-30T08:17:28;31.38;;;15.00;;
49548;SDS011;35450;44.518;7.466;2023-09-30T08:20:33;20.80;;;14.27;;
49548;SDS011;35450;44.518;7.466;2023-09-30T08:23:37;22.10;;;14.00;;
49548;SDS011;35450;44.518;7.466;2023-09-30T08:26:42;19.98;;;14.50;;
49548;SDS011;35450;44.518;7.466;2023-09-30T08:29:46;20.40;;;13.80;;
49548;SDS011;35450;44.518;7.466;2023-09-30T08:32:50;32.65;;;13.32;;
49548;SDS011;35450;44.518;7.466;2023-09-30T08:35:54;18.95;;;13.00;;
49548;SDS011;35450;44.518;7.466;2023-09-30T08:38:58;24.73;;;13.55;;
49548;SDS011;35450;44.518;7.466;2023-09-30T08:42:02;24.48;;;14.02;;
49548;SDS011;35450;44.518;7.466;2023-09-30T08:45:08;22.00;;;13.35;;
49548;SDS011;35450;44.518;7.466;2023-09-30T08:48:15;27.92;;;14.40;;
49548;SDS011;35450;44.518;7.466;2023-09-30T08:51:19;27.88;;;13.30;;
49548;SDS011;35450;44.518;7.466;2023-09-30T08:54:24;20.05;;;14.13;;
49548;SDS011;35450;44.518;7.466;2023-09-30T08:57:28;26.30;;;15.93;;
49548;SDS011;35450;44.518;7.466;2023-09-30T09:00:33;27.40;;;15.73;;
49548;SDS011;35450;44.518;7.466;2023-09-30T09:03:37;30.58;;;15.93;;
49548;SDS011;35450;44.518;7.466;2023-09-30T09:06:42;20.63;;;15.40;;
49548;SDS011;35450;44.518;7.466;2023-09-30T09:10:02;30.35;;;15.57;;
49548;SDS011;35450;44.518;7.466;2023-09-30T09:13:09;28.13;;;14.55;;
49548;SDS011;35450;44.518;7.466;2023-09-30T09:16:13;24.95;;;15.52;;
49548;SDS011;35450;44.518;7.466;2023-09-30T09:19:17;20.90;;;14.65;;
49548;SDS011;35450;44.518;7.466;2023-09-30T09:22:21;30.95;;;16.05;;
49548;SDS011;35450;44.518;7.466;2023-09-30T09:25:25;32.40;;;15.20;;
49548;SDS011;35450;44.518;7.466;2023-09-30T09:28:36;22.15;;;15.25;;
49548;SDS011;35450;44.518;7.466;2023-09-30T09:31:42;33.33;;;15.68;;
49548;SDS011;35450;44.518;7.466;2023-09-30T09:34:48;27.88;;;14.48;;
49548;SDS011;35450;44.518;7.466;2023-09-30T09:38:04;33.17;;;16.02;;
49548;SDS011;35450;44.518;7.466;2023-09-30T09:41:10;19.30;;;14.25;;
49548;SDS011;35450;44.518;7.466;2023-09-30T09:44:14;33.47;;;14.38;;
49548;SDS011;35450;44.518;7.466;2023-09-30T09:47:19;22.60;;;14.32;;
49548;SDS011;35450;44.518;7.466;2023-09-30T09:50:25;23.98;;;15.43;;
49548;SDS011;35450;44.518;7.466;2023-09-30T09:53:34;31.17;;;14.82;;
49548;SDS011;35450;44.518;7.466;2023-09-30T09:56:42;20.75;;;15.45;;
49548;SDS011;35450;44.518;7.466;2023-09-30T09:59:48;27.17;;;15.48;;
49548;SDS011;35450;44.518;7.466;2023-09-30T10:02:52;31.33;;;14.05;;
49548;SDS011;35450;44.518;7.466;2023-09-30T10:05:56;27.63;;;15.60;;
49548;SDS011;35450;44.518;7.466;2023-09-30T10:09:01;26.98;;;15.25;;
49548;SDS011;35450;44.518;7.466;2023-09-30T10:12:06;27.80;;;14.88;;
49548;SDS011;35450;44.518;7.466;2023-09-30T10:18:28;25.67;;;15.25;;
49548;SDS011;35450;44.518;7.466;2023-09-30T10:21:32;32.20;;;15.50;;
49548;SDS011;35450;44.518;7.466;2023-09-30T10:24:37;31.70;;;14.45;;
49548;SDS011;35450;44.518;7.466;2023-09-30T10:27:41;24.63;;;15.52;;
49548;SDS011;35450;44.518;7.466;2023-09-30T10:34:30;28.63;;;14.98;;
49548;SDS011;35450;44.518;7.466;2023-09-30T10:37:35;32.17;;;15.77;;
49548;SDS011;35450;44.518;7.466;2023-09-30T10:40:39;31.08;;;17.65;;
49548;SDS011;35450;44.518;7.466;2023-09-30T10:43:43;30.77;;;16.77;;
49548;SDS011;35450;44.518;7.466;2023-09-30T10:46:47;25.27;;;18.70;;
49548;SDS011;35450;44.518;7.466;2023-09-30T10:49:52;27.63;;;18.00;;
49548;SDS011;35450;44.518;7.466;2023-09-30T10:53:01;34.22;;;18.00;;
49548;SDS011;35450;44.518;7.466;2023-09-30T10:56:08;30.10;;;19.42;;
49548;SDS011;35450;44.518;7.466;2023-09-30T10:59:18;44.88;;;19.23;;
49548;SDS011;35450;44.518;7.466;2023-09-30T11:02:22;34.53;;;18.00;;
49548;SDS011;35450;44.518;7.466;2023-09-30T11:05:26;24.85;;;17.05;;
49548;SDS011;35450;44.518;7.466;2023-09-30T11:08:31;28.83;;;19.17;;
49548;SDS011;35450;44.518;7.466;2023-09-30T11:11:36;34.20;;;17.98;;
49548;SDS011;35450;44.518;7.466;2023-09-30T11:14:58;31.95;;;17.50;;
49548;SDS011;35450;44.518;7.466;2023-09-30T11:18:17;26.52;;;17.95;;
49548;SDS011;35450;44.518;7.466;2023-09-30T11:21:21;32.63;;;16.50;;
49548;SDS011;35450;44.518;7.466;2023-09-30T11:24:26;27.30;;;17.23;;
49548;SDS011;35450;44.518;7.466;2023-09-30T11:27:32;30.38;;;16.98;;
49548;SDS011;35450;44.518;7.466;2023-09-30T11:30:52;26.23;;;16.45;;
49548;SDS011;35450;44.518;7.466;2023-09-30T11:33:59;18.50;;;14.50;;
49548;SDS011;35450;44.518;7.466;2023-09-30T11:37:07;23.85;;;14.82;;
49548;SDS011;35450;44.518;7.466;2023-09-30T11:40:13;28.27;;;13.60;;
49548;SDS011;35450;44.518;7.466;2023-09-30T11:43:17;35.88;;;13.88;;
49548;SDS011;35450;44.518;7.466;2023-09-30T11:46:21;34.10;;;15.25;;
49548;SDS011;35450;44.518;7.466;2023-09-30T11:52:30;25.40;;;12.80;;
49548;SDS011;35450;44.518;7.466;2023-09-30T11:55:34;25.45;;;13.57;;
49548;SDS011;35450;44.518;7.466;2023-09-30T11:58:40;16.15;;;11.48;;
49548;SDS011;35450;44.518;7.466;2023-09-30T12:01:44;24.70;;;12.85;;
49548;SDS011;35450;44.518;7.466;2023-09-30T12:04:51;13.05;;;11.25;;
49548;SDS011;35450;44.518;7.466;2023-09-30T12:07:56;13.95;;;11.48;;
49548;SDS011;35450;44.518;7.466;2023-09-30T12:11:00;22.35;;;12.10;;
49548;SDS011;35450;44.518;7.466;2023-09-30T12:14:04;27.67;;;11.85;;
49548;SDS011;35450;44.518;7.466;2023-09-30T12:17:08;17.48;;;10.98;;
49548;SDS011;35450;44.518;7.466;2023-09-30T12:20:15;20.98;;;11.07;;
49548;SDS011;35450;44.518;7.466;2023-09-30T12:23:21;23.40;;;10.23;;
49548;SDS011;35450;44.518;7.466;2023-09-30T12:26:25;17.60;;;9.95;;
49548;SDS011;35450;44.518;7.466;2023-09-30T12:29:29;19.23;;;10.68;;
49548;SDS011;35450;44.518;7.466;2023-09-30T12:32:33;17.60;;;10.43;;
49548;SDS011;35450;44.518;7.466;2023-09-30T12:35:37;19.23;;;10.27;;
49548;SDS011;35450;44.518;7.466;2023-09-30T12:38:41;22.45;;;10.68;;
49548;SDS011;35450;44.518;7.466;2023-09-30T12:41:45;21.00;;;10.52;;
49548;SDS011;35450;44.518;7.466;2023-09-30T12:44:49;27.73;;;10.93;;
49548;SDS011;35450;44.518;7.466;2023-09-30T12:47:54;17.23;;;10.75;;
49548;SDS011;35450;44.518;7.466;2023-09-30T12:50:59;20.02;;;11.07;;
49548;SDS011;35450;44.518;7.466;2023-09-30T12:54:04;31.40;;;11.43;;
49548;SDS011;35450;44.518;7.466;2023-09-30T12:57:08;23.35;;;11.43;;
49548;SDS011;35450;44.518;7.466;2023-09-30T13:00:12;15.93;;;9.75;;
49548;SDS011;35450;44.518;7.466;2023-09-30T13:03:19;17.35;;;10.35;;
49548;SDS011;35450;44.518;7.466;2023-09-30T13:06:23;22.30;;;11.05;;
49548;SDS011;35450;44.518;7.466;2023-09-30T13:09:27;22.73;;;11.07;;
49548;SDS011;35450;44.518;7.466;2023-09-30T13:12:31;20.00;;;11.00;;
49548;SDS011;35450;44.518;7.466;2023-09-30T13:15:36;22.38;;;11.93;;
49548;SDS011;35450;44.518;7.466;2023-09-30T13:18:41;20.90;;;11.95;;
49548;SDS011;35450;44.518;7.466;2023-09-30T13:21:44;23.50;;;11.57;;
49548;SDS011;35450;44.518;7.466;2023-09-30T13:24:49;18.45;;;11.55;;
49548;SDS011;35450;44.518;7.466;2023-09-30T13:27:53;17.17;;;12.10;;
49548;SDS011;35450;44.518;7.466;2023-09-30T13:30:57;18.73;;;13.02;;
49548;SDS011;35450;44.518;7.466;2023-09-30T13:34:01;21.52;;;13.10;;
49548;SDS011;35450;44.518;7.466;2023-09-30T13:37:06;25.20;;;12.45;;
49548;SDS011;35450;44.518;7.466;2023-09-30T13:40:11;26.83;;;13.20;;
49548;SDS011;35450;44.518;7.466;2023-09-30T13:43:16;26.80;;;12.82;;
49548;SDS011;35450;44.518;7.466;2023-09-30T13:46:20;25.13;;;12.40;;
49548;SDS011;35450;44.518;7.466;2023-09-30T13:49:27;16.40;;;12.18;;
49548;SDS011;35450;44.518;7.466;2023-09-30T13:52:31;28.58;;;11.80;;
49548;SDS011;35450;44.518;7.466;2023-09-30T13:55:39;17.90;;;10.38;;
49548;SDS011;35450;44.518;7.466;2023-09-30T13:58:43;25.42;;;11.10;;
49548;SDS011;35450;44.518;7.466;2023-09-30T14:01:47;19.63;;;10.48;;
49548;SDS011;35450;44.518;7.466;2023-09-30T14:04:51;27.27;;;12.80;;
49548;SDS011;35450;44.518;7.466;2023-09-30T14:07:56;30.80;;;12.85;;
49548;SDS011;35450;44.518;7.466;2023-09-30T14:11:01;23.92;;;13.27;;
49548;SDS011;35450;44.518;7.466;2023-09-30T14:14:05;30.63;;;13.00;;
49548;SDS011;35450;44.518;7.466;2023-09-30T14:17:09;28.80;;;13.13;;
49548;SDS011;35450;44.518;7.466;2023-09-30T14:20:18;17.25;;;12.02;;
49548;SDS011;35450;44.518;7.466;2023-09-30T14:23:22;35.13;;;14.27;;
49548;SDS011;35450;44.518;7.466;2023-09-30T14:26:26;20.08;;;12.13;;
49548;SDS011;35450;44.518;7.466;2023-09-30T14:29:31;27.38;;;12.25;;
49548;SDS011;35450;44.518;7.466;2023-09-30T14:32:35;27.55;;;12.45;;
49548;SDS011;35450;44.518;7.466;2023-09-30T14:35:39;19.70;;;13.65;;
49548;SDS011;35450;44.518;7.466;2023-09-30T14:38:44;24.38;;;13.15;;
49548;SDS011;35450;44.518;7.466;2023-09-30T14:41:48;20.95;;;13.73;;
49548;SDS011;35450;44.518;7.466;2023-09-30T14:44:52;25.52;;;12.88;;
49548;SDS011;35450;44.518;7.466;2023-09-30T14:47:57;25.27;;;13.02;;
49548;SDS011;35450;44.518;7.466;2023-09-30T14:51:01;20.00;;;11.73;;
49548;SDS011;35450;44.518;7.466;2023-09-30T14:54:08;19.33;;;12.68;;
49548;SDS011;35450;44.518;7.466;2023-09-30T14:57:12;27.73;;;13.82;;
49548;SDS011;35450;44.518;7.466;2023-09-30T15:00:19;32.50;;;12.55;;
49548;SDS011;35450;44.518;7.466;2023-09-30T15:03:25;33.50;;;13.45;;
49548;SDS011;35450;44.518;7.466;2023-09-30T15:06:29;22.20;;;12.07;;
49548;SDS011;35450;44.518;7.466;2023-09-30T15:09:33;24.27;;;12.70;;
49548;SDS011;35450;44.518;7.466;2023-09-30T15:12:38;22.13;;;12.25;;
49548;SDS011;35450;44.518;7.466;2023-09-30T15:15:42;24.40;;;12.10;;
49548;SDS011;35450;44.518;7.466;2023-09-30T15:18:46;21.27;;;12.77;;
49548;SDS011;35450;44.518;7.466;2023-09-30T15:21:51;17.58;;;11.32;;
49548;SDS011;35450;44.518;7.466;2023-09-30T15:24:55;26.98;;;12.43;;
49548;SDS011;35450;44.518;7.466;2023-09-30T15:27:59;18.30;;;11.30;;
49548;SDS011;35450;44.518;7.466;2023-09-30T15:31:03;16.98;;;11.18;;
49548;SDS011;35450;44.518;7.466;2023-09-30T15:34:08;18.23;;;11.38;;
49548;SDS011;35450;44.518;7.466;2023-09-30T15:37:13;18.55;;;12.90;;
49548;SDS011;35450;44.518;7.466;2023-09-30T15:40:17;26.00;;;12.73;;
49548;SDS011;35450;44.518;7.466;2023-09-30T15:43:21;18.25;;;11.05;;
49548;SDS011;35450;44.518;7.466;2023-09-30T15:46:26;27.35;;;11.77;;
49548;SDS011;35450;44.518;7.466;2023-09-30T15:49:29;23.73;;;12.15;;
49548;SDS011;35450;44.518;7.466;2023-09-30T15:52:33;19.17;;;12.25;;
49548;SDS011;35450;44.518;7.466;2023-09-30T15:55:38;27.70;;;12.18;;
49548;SDS011;35450;44.518;7.466;2023-09-30T15:58:42;17.25;;;12.05;;
49548;SDS011;35450;44.518;7.466;2023-09-30T16:01:46;24.65;;;12.45;;
49548;SDS011;35450;44.518;7.466;2023-09-30T16:04:50;23.45;;;11.70;;
49548;SDS011;35450;44.518;7.466;2023-09-30T16:07:54;17.90;;;11.65;;
49548;SDS011;35450;44.518;7.466;2023-09-30T16:10:58;23.48;;;12.93;;
49548;SDS011;35450;44.518;7.466;2023-09-30T16:14:02;37.55;;;12.68;;
49548;SDS011;35450;44.518;7.466;2023-09-30T16:17:06;23.58;;;12.05;;
49548;SDS011;35450;44.518;7.466;2023-09-30T16:20:12;20.00;;;11.68;;
49548;SDS011;35450;44.518;7.466;2023-09-30T16:23:15;19.60;;;11.05;;
49548;SDS011;35450;44.518;7.466;2023-09-30T16:26:20;14.82;;;10.88;;
49548;SDS011;35450;44.518;7.466;2023-09-30T16:29:24;16.90;;;11.80;;
49548;SDS011;35450;44.518;7.466;2023-09-30T16:32:27;20.83;;;13.18;;
49548;SDS011;35450;44.518;7.466;2023-09-30T16:35:34;28.05;;;13.23;;
49548;SDS011;35450;44.518;7.466;2023-09-30T16:38:38;22.42;;;12.93;;
49548;SDS011;35450;44.518;7.466;2023-09-30T16:41:42;26.20;;;13.82;;
49548;SDS011;35450;44.518;7.466;2023-09-30T16:44:46;19.67;;;12.05;;
49548;SDS011;35450;44.518;7.466;2023-09-30T16:47:50;19.48;;;12.18;;
49548;SDS011;35450;44.518;7.466;2023-09-30T16:50:54;19.90;;;13.75;;
49548;SDS011;35450;44.518;7.466;2023-09-30T16:53:58;28.02;;;14.30;;
49548;SDS011;35450;44.518;7.466;2023-09-30T16:57:03;26.05;;;12.57;;
49548;SDS011;35450;44.518;7.466;2023-09-30T17:00:08;26.77;;;11.98;;
49548;SDS011;35450;44.518;7.466;2023-09-30T17:03:14;23.38;;;12.10;;
49548;SDS011;35450;44.518;7.466;2023-09-30T17:06:18;24.30;;;11.40;;
49548;SDS011;35450;44.518;7.466;2023-09-30T17:09:22;25.88;;;11.45;;
49548;SDS011;35450;44.518;7.466;2023-09-30T17:12:27;24.67;;;13.27;;
49548;SDS011;35450;44.518;7.466;2023-09-30T17:15:32;21.83;;;13.82;;
49548;SDS011;35450;44.518;7.466;2023-09-30T17:18:36;19.48;;;13.38;;
49548;SDS011;35450;44.518;7.466;2023-09-30T17:21:40;19.88;;;13.93;;
49548;SDS011;35450;44.518;7.466;2023-09-30T17:24:44;26.15;;;14.13;;
49548;SDS011;35450;44.518;7.466;2023-09-30T17:27:50;28.90;;;13.82;;
49548;SDS011;35450;44.518;7.466;2023-09-30T17:30:54;22.50;;;13.63;;
49548;SDS011;35450;44.518;7.466;2023-09-30T17:34:00;23.20;;;13.95;;
49548;SDS011;35450;44.518;7.466;2023-09-30T17:37:05;21.33;;;14.05;;
49548;SDS011;35450;44.518;7.466;2023-09-30T17:40:13;19.70;;;13.02;;
49548;SDS011;35450;44.518;7.466;2023-09-30T17:43:17;22.35;;;13.80;;
49548;SDS011;35450;44.518;7.466;2023-09-30T17:46:21;27.13;;;15.48;;
49548;SDS011;35450;44.518;7.466;2023-09-30T17:49:26;19.52;;;13.38;;
49548;SDS011;35450;44.518;7.466;2023-09-30T17:52:31;24.58;;;14.70;;
49548;SDS011;35450;44.518;7.466;2023-09-30T17:55:36;25.63;;;13.60;;
49548;SDS011;35450;44.518;7.466;2023-09-30T17:58:41;18.98;;;12.80;;
49548;SDS011;35450;44.518;7.466;2023-09-30T18:01:45;25.20;;;14.45;;
49548;SDS011;35450;44.518;7.466;2023-09-30T18:04:49;26.85;;;13.60;;
49548;SDS011;35450;44.518;7.466;2023-09-30T18:07:54;20.63;;;13.93;;
49548;SDS011;35450;44.518;7.466;2023-09-30T18:10:57;25.88;;;13.95;;